createdAt,value
2023-01-28T00:01:25.190Z,5.53
2023-01-28T00:03:52.465Z,5.95
2023-01-28T00:06:19.668Z,5.28
2023-01-28T00:08:46.263Z,5.88
2023-01-28T00:11:14.604Z,5.97
2023-01-28T00:13:41.807Z,5.80
2023-01-28T00:16:09.775Z,6.10
2023-01-28T00:18:37.368Z,6.32
2023-01-28T00:21:06.979Z,6.03
2023-01-28T00:23:54.666Z,6.65
2023-01-28T00:26:22.366Z,6.30
2023-01-28T00:28:49.111Z,6.90
2023-01-28T00:31:18.372Z,6.80
2023-01-28T00:33:47.302Z,7.20
2023-01-28T00:36:14.676Z,7.20
2023-01-28T00:38:43.117Z,6.78
2023-01-28T00:41:12.414Z,6.95
2023-01-28T00:43:39.983Z,7.20
2023-01-28T00:46:08.673Z,6.63
2023-01-28T00:48:37.004Z,6.35
2023-01-28T00:51:04.302Z,7.10
2023-01-28T00:53:32.348Z,6.78
2023-01-28T00:55:59.179Z,6.90
2023-01-28T00:58:27.866Z,6.55
2023-01-28T01:00:54.641Z,5.90
2023-01-28T01:03:21.217Z,5.80
2023-01-28T01:05:47.890Z,4.63
2023-01-28T01:08:14.521Z,4.45
2023-01-28T01:10:41.281Z,4.47
2023-01-28T01:13:08.166Z,4.18
2023-01-28T01:15:35.030Z,4.32
2023-01-28T01:18:01.777Z,4.40
2023-01-28T01:20:29.359Z,3.95
2023-01-28T01:22:57.996Z,4.57
2023-01-28T01:25:24.784Z,5.63
2023-01-28T01:27:51.364Z,5.60
2023-01-28T01:30:18.231Z,5.45
2023-01-28T01:32:44.894Z,5.60
2023-01-28T01:35:11.685Z,5.00
2023-01-28T01:37:38.268Z,5.60
2023-01-28T01:40:05.549Z,5.95
2023-01-28T01:42:35.371Z,4.80
2023-01-28T01:45:07.845Z,5.00
2023-01-28T01:48:02.207Z,4.38
2023-01-28T01:50:36.554Z,5.05
2023-01-28T01:53:09.443Z,5.30
2023-01-28T01:55:38.983Z,6.50
2023-01-28T01:58:11.778Z,6.65
2023-01-28T02:00:40.585Z,6.50
2023-01-28T02:03:07.599Z,7.05
2023-01-28T02:05:34.459Z,7.47
2023-01-28T02:08:20.152Z,6.93
2023-01-28T02:10:49.531Z,7.13
2023-01-28T02:13:18.454Z,6.70
2023-01-28T02:15:46.679Z,7.18
2023-01-28T02:18:13.307Z,8.32
2023-01-28T02:20:56.381Z,8.05
2023-01-28T02:23:46.106Z,7.47
2023-01-28T02:26:51.143Z,8.18
2023-01-28T02:29:45.941Z,8.45
2023-01-28T02:32:24.816Z,7.57
2023-01-28T02:35:08.902Z,8.32
2023-01-28T02:37:40.650Z,7.40
2023-01-28T02:40:15.124Z,9.40
2023-01-28T02:42:42.111Z,9.02
2023-01-28T02:45:50.342Z,9.38
2023-01-28T02:48:19.948Z,10.38
2023-01-28T02:51:05.478Z,10.15
2023-01-28T02:53:44.225Z,9.35
2023-01-28T02:56:31.319Z,9.88
2023-01-28T02:59:31.447Z,8.90
2023-01-28T03:02:18.372Z,9.38
2023-01-28T03:04:50.850Z,9.07
2023-01-28T03:07:18.794Z,8.32
2023-01-28T03:09:49.837Z,8.68
2023-01-28T03:12:42.192Z,9.27
2023-01-28T03:15:56.757Z,8.48
2023-01-28T03:18:47.742Z,8.80
2023-01-28T03:21:40.401Z,8.90
2023-01-28T03:24:32.376Z,9.95
2023-01-28T03:27:45.561Z,7.82
2023-01-28T03:30:37.329Z,7.38
2023-01-28T03:33:25.265Z,8.93
2023-01-28T03:36:10.322Z,9.48
2023-01-28T03:38:42.254Z,9.30
2023-01-28T03:41:12.367Z,10.38
2023-01-28T03:43:38.951Z,8.35
2023-01-28T03:46:06.562Z,9.05
2023-01-28T03:48:33.436Z,8.57
2023-01-28T03:51:02.744Z,9.95
2023-01-28T03:53:29.358Z,10.00
2023-01-28T03:55:59.228Z,9.80
2023-01-28T03:58:46.259Z,9.93
2023-01-28T04:01:14.105Z,8.40
2023-01-28T04:03:40.828Z,7.70
2023-01-28T04:06:09.542Z,8.13
2023-01-28T04:08:36.424Z,8.02
2023-01-28T04:11:19.918Z,7.95
2023-01-28T04:13:47.906Z,7.80
2023-01-28T04:16:17.467Z,8.43
2023-01-28T04:18:44.720Z,8.35
2023-01-28T04:21:12.532Z,7.95
2023-01-28T04:23:39.184Z,6.88
2023-01-28T04:26:05.819Z,6.05
2023-01-28T04:28:32.631Z,7.32
2023-01-28T04:30:59.346Z,8.00
2023-01-28T04:33:26.067Z,7.13
2023-01-28T04:35:52.686Z,7.00
2023-01-28T04:38:19.266Z,7.05
2023-01-28T04:40:50.749Z,6.95
2023-01-28T04:43:18.139Z,7.10
2023-01-28T04:45:44.695Z,6.40
2023-01-28T04:48:11.251Z,6.97
2023-01-28T04:50:37.959Z,6.45
2023-01-28T04:53:04.825Z,6.15
2023-01-28T04:55:31.817Z,6.53
2023-01-28T04:57:58.446Z,6.05
2023-01-28T05:00:25.241Z,5.85
2023-01-28T05:02:51.796Z,5.40
2023-01-28T05:05:18.719Z,5.85
2023-01-28T05:07:51.953Z,6.55
2023-01-28T05:10:19.676Z,6.05
2023-01-28T05:12:47.999Z,6.43
2023-01-28T05:15:16.296Z,6.32
2023-01-28T05:17:44.130Z,7.35
2023-01-28T05:20:13.540Z,6.15
2023-01-28T05:22:40.870Z,7.18
2023-01-28T05:25:08.163Z,6.35
2023-01-28T05:27:34.858Z,5.35
2023-01-28T05:30:01.498Z,5.65
2023-01-28T05:32:28.132Z,5.88
2023-01-28T05:34:55.769Z,5.57
2023-01-28T05:37:22.345Z,6.68
2023-01-28T05:39:51.005Z,6.90
2023-01-28T05:42:20.863Z,6.85
2023-01-28T05:44:47.549Z,6.43
2023-01-28T05:47:14.229Z,5.45
2023-01-28T05:49:40.830Z,6.57
2023-01-28T05:52:07.526Z,6.70
2023-01-28T05:54:34.267Z,6.85
2023-01-28T05:57:00.903Z,6.20
2023-01-28T05:59:27.603Z,6.63
2023-01-28T06:01:54.102Z,7.10
2023-01-28T06:04:20.791Z,6.60
2023-01-28T06:06:47.552Z,6.88
2023-01-28T06:09:14.275Z,5.45
2023-01-28T06:11:40.884Z,6.38
2023-01-28T06:14:10.729Z,6.75
2023-01-28T06:16:37.340Z,6.47
2023-01-28T06:19:04.178Z,6.85
2023-01-28T06:21:30.902Z,6.85
2023-01-28T06:23:57.679Z,7.13
2023-01-28T06:26:24.590Z,6.50
2023-01-28T06:28:51.418Z,6.28
2023-01-28T06:31:18.426Z,6.38
2023-01-28T06:33:45.222Z,6.65
2023-01-28T06:36:11.894Z,6.18
2023-01-28T06:38:38.698Z,6.65
2023-01-28T06:41:05.537Z,5.30
2023-01-28T06:43:32.160Z,6.43
2023-01-28T06:45:58.892Z,6.50
2023-01-28T06:48:27.274Z,6.53
2023-01-28T06:50:54.164Z,6.43
2023-01-28T06:53:21.428Z,6.57
2023-01-28T06:55:48.160Z,6.47
2023-01-28T06:58:14.861Z,6.32
2023-01-28T07:00:41.515Z,6.28
2023-01-28T07:03:08.485Z,6.25
2023-01-28T07:05:35.242Z,5.97
2023-01-28T07:08:02.443Z,5.93
2023-01-28T07:10:29.895Z,5.85
2023-01-28T07:12:56.648Z,6.35
2023-01-28T07:15:23.462Z,6.00
2023-01-28T07:17:50.140Z,5.60
2023-01-28T07:20:17.630Z,6.07
2023-01-28T07:22:46.323Z,6.50
2023-01-28T07:25:14.726Z,5.88
2023-01-28T07:27:50.595Z,7.25
2023-01-28T07:30:18.400Z,6.55
2023-01-28T07:32:45.286Z,6.35
2023-01-28T07:35:12.496Z,5.90
2023-01-28T07:37:40.166Z,6.20
2023-01-28T07:40:07.447Z,7.28
2023-01-28T07:42:34.115Z,7.15
2023-01-28T07:45:00.807Z,6.22
2023-01-28T07:47:28.608Z,6.68
2023-01-28T07:49:55.270Z,6.80
2023-01-28T07:52:21.987Z,6.60
2023-01-28T07:54:48.570Z,7.00
2023-01-28T07:57:15.325Z,6.45
2023-01-28T07:59:41.939Z,7.10
2023-01-28T08:02:12.684Z,7.13
2023-01-28T08:04:40.978Z,6.05
2023-01-28T08:07:08.255Z,6.35
2023-01-28T08:09:35.569Z,6.30
2023-01-28T08:12:02.804Z,6.72
2023-01-28T08:14:29.671Z,5.93
2023-01-28T08:16:56.248Z,6.03
2023-01-28T08:19:22.934Z,6.28
2023-01-28T08:21:49.576Z,5.78
2023-01-28T08:24:17.139Z,6.22
2023-01-28T08:26:43.788Z,5.60
2023-01-28T08:29:10.343Z,5.10
2023-01-28T08:31:39.161Z,6.30
2023-01-28T08:34:05.767Z,5.65
2023-01-28T08:36:32.598Z,4.95
2023-01-28T08:38:59.223Z,5.15
2023-01-28T08:41:25.851Z,4.97
2023-01-28T08:43:52.474Z,4.63
2023-01-28T08:46:19.056Z,4.60
2023-01-28T08:48:45.704Z,4.90
2023-01-28T08:51:12.477Z,4.90
2023-01-28T08:53:39.366Z,4.57
2023-01-28T08:56:06.276Z,5.20
2023-01-28T08:58:32.975Z,4.68
2023-01-28T09:01:04.638Z,5.75
2023-01-28T09:03:31.256Z,5.07
2023-01-28T09:06:04.861Z,5.85
2023-01-28T09:08:31.850Z,5.82
2023-01-28T09:10:59.256Z,5.47
2023-01-28T09:13:27.832Z,4.85
2023-01-28T09:15:54.831Z,5.47
2023-01-28T09:18:21.474Z,5.75
2023-01-28T09:20:48.368Z,6.07
2023-01-28T09:23:15.252Z,5.45
2023-01-28T09:25:41.918Z,5.07
2023-01-28T09:28:08.872Z,5.35
2023-01-28T09:30:37.520Z,4.90
2023-01-28T09:33:04.479Z,5.70
2023-01-28T09:35:33.362Z,5.03
2023-01-28T09:38:00.272Z,4.80
2023-01-28T09:40:40.940Z,4.88
2023-01-28T09:43:59.367Z,5.50
2023-01-28T09:46:35.346Z,5.40
2023-01-28T09:49:10.095Z,4.53
2023-01-28T09:51:42.181Z,5.03
2023-01-28T09:54:40.988Z,5.03
2023-01-28T09:57:21.729Z,5.07
2023-01-28T09:59:49.715Z,5.32
2023-01-28T10:02:16.210Z,4.88
2023-01-28T10:05:01.692Z,5.13
2023-01-28T10:07:37.449Z,5.28
2023-01-28T10:10:13.921Z,4.85
2023-01-28T10:13:17.260Z,4.78
2023-01-28T10:15:53.889Z,5.50
2023-01-28T10:18:47.882Z,5.47
2023-01-28T10:21:33.555Z,4.60
2023-01-28T10:24:20.562Z,4.93
2023-01-28T10:26:47.647Z,4.80
2023-01-28T10:29:19.950Z,5.05
2023-01-28T10:32:04.603Z,4.82
2023-01-28T10:34:31.755Z,5.15
2023-01-28T10:36:58.862Z,5.43
2023-01-28T10:39:26.865Z,5.85
2023-01-28T10:41:58.368Z,5.72
2023-01-28T10:44:34.720Z,5.88
2023-01-28T10:47:11.067Z,5.40
2023-01-28T10:49:43.918Z,5.20
2023-01-28T10:52:15.027Z,6.18
2023-01-28T10:54:41.714Z,6.10
2023-01-28T10:57:13.377Z,5.90
2023-01-28T10:59:41.886Z,5.82
2023-01-28T11:02:32.450Z,5.53
2023-01-28T11:05:36.919Z,6.10
2023-01-28T11:08:16.687Z,4.80
2023-01-28T11:10:44.508Z,4.95
2023-01-28T11:13:28.078Z,6.15
2023-01-28T11:15:54.635Z,5.43
2023-01-28T11:18:25.692Z,5.35
2023-01-28T11:20:56.907Z,5.45
2023-01-28T11:23:31.456Z,5.68
2023-01-28T11:26:21.463Z,5.10
2023-01-28T11:28:48.500Z,5.20
2023-01-28T11:31:18.129Z,5.82
2023-01-28T11:33:59.987Z,5.72
2023-01-28T11:36:29.602Z,5.97
2023-01-28T11:39:07.597Z,5.97
2023-01-28T11:41:36.872Z,5.53
2023-01-28T11:44:26.432Z,5.47
2023-01-28T11:47:31.572Z,5.35
2023-01-28T11:50:13.475Z,5.65
2023-01-28T11:53:07.779Z,4.55
2023-01-28T11:55:38.242Z,4.82
2023-01-28T11:58:13.903Z,4.78
2023-01-28T12:00:46.452Z,5.10
2023-01-28T12:03:32.120Z,4.80
2023-01-28T12:06:21.721Z,4.55
2023-01-28T12:08:51.302Z,5.18
2023-01-28T12:11:54.929Z,5.07
2023-01-28T12:14:55.150Z,4.95
2023-01-28T12:17:35.955Z,4.90
2023-01-28T12:20:19.774Z,4.88
2023-01-28T12:23:05.584Z,4.10
2023-01-28T12:26:04.680Z,4.90
2023-01-28T12:28:41.221Z,5.55
2023-01-28T12:31:27.807Z,5.00
2023-01-28T12:33:54.520Z,4.82
2023-01-28T12:36:40.222Z,5.00
2023-01-28T12:39:18.666Z,5.07
2023-01-28T12:41:51.951Z,4.82
2023-01-28T12:44:34.734Z,4.85
2023-01-28T12:47:08.038Z,5.15
2023-01-28T12:49:42.359Z,4.70
2023-01-28T12:52:15.558Z,5.88
2023-01-28T12:55:27.404Z,5.25
2023-01-28T12:57:57.337Z,5.15
2023-01-28T13:00:44.734Z,4.93
2023-01-28T13:06:02.122Z,4.50
2023-01-28T13:08:30.105Z,5.38
2023-01-28T13:11:02.120Z,4.80
2023-01-28T13:13:37.452Z,4.70
2023-01-28T13:16:10.873Z,4.93
2023-01-28T13:18:40.499Z,4.53
2023-01-28T13:21:12.620Z,4.80
2023-01-28T13:23:42.180Z,5.20
2023-01-28T13:26:23.075Z,5.05
2023-01-28T13:28:52.922Z,5.45
2023-01-28T13:31:24.580Z,5.85
2023-01-28T13:33:54.190Z,5.65
2023-01-28T13:36:31.844Z,5.50
2023-01-28T13:39:08.579Z,5.40
2023-01-28T13:44:32.949Z,5.50
2023-01-28T13:47:19.807Z,5.47
2023-01-28T13:50:03.882Z,5.18
2023-01-28T13:52:45.672Z,5.78
2023-01-28T13:55:12.274Z,5.47
2023-01-28T13:58:07.741Z,5.00
2023-01-28T14:00:43.440Z,5.40
2023-01-28T14:03:38.445Z,5.75
2023-01-28T14:06:20.405Z,6.32
2023-01-28T14:09:15.547Z,5.97
2023-01-28T14:12:05.839Z,6.55
2023-01-28T14:14:56.180Z,6.45
2023-01-28T14:17:34.089Z,5.55
2023-01-28T14:20:01.452Z,5.78
2023-01-28T14:22:28.386Z,6.25
2023-01-28T14:24:59.119Z,6.25
2023-01-28T14:27:40.099Z,6.20
2023-01-28T14:30:26.115Z,6.32
2023-01-28T14:32:54.504Z,6.10
2023-01-28T14:35:35.232Z,5.85
2023-01-28T14:38:09.195Z,5.40
2023-01-28T14:40:39.219Z,6.55
2023-01-28T14:43:09.166Z,6.60
2023-01-28T14:45:54.432Z,6.35
2023-01-28T14:48:50.094Z,6.13
2023-01-28T14:51:30.318Z,6.00
2023-01-28T14:54:28.794Z,5.93
2023-01-28T14:57:30.986Z,5.75
2023-01-28T14:59:58.373Z,6.28
2023-01-28T15:02:34.087Z,5.60
2023-01-28T15:05:15.474Z,6.03
2023-01-28T15:07:46.814Z,5.68
2023-01-28T15:10:37.308Z,5.32
2023-01-28T15:13:15.423Z,6.28
2023-01-28T15:15:49.092Z,5.45
2023-01-28T15:18:15.701Z,6.05
2023-01-28T15:20:47.786Z,5.85
2023-01-28T15:25:48.803Z,6.18
2023-01-28T15:28:28.882Z,5.82
2023-01-28T15:30:56.027Z,5.45
2023-01-28T15:33:24.230Z,6.57
2023-01-28T15:35:55.887Z,6.60
2023-01-28T15:38:24.454Z,6.13
2023-01-28T15:40:59.971Z,6.50
2023-01-28T15:43:33.212Z,6.95
2023-01-28T15:46:01.254Z,6.82
2023-01-28T15:48:32.154Z,6.43
2023-01-28T15:51:08.439Z,6.43
2023-01-28T15:53:42.013Z,6.57
2023-01-28T15:56:11.495Z,9.00
2023-01-28T15:58:41.707Z,9.07
2023-01-28T16:01:08.565Z,8.77
2023-01-28T16:03:39.507Z,8.18
2023-01-28T16:06:28.575Z,7.70
2023-01-28T16:08:59.104Z,7.15
2023-01-28T16:11:32.888Z,8.10
2023-01-28T16:14:00.039Z,7.10
2023-01-28T16:16:49.978Z,7.68
2023-01-28T16:19:30.648Z,7.35
2023-01-28T16:21:57.794Z,6.75
2023-01-28T16:24:27.328Z,8.65
2023-01-28T16:26:59.484Z,8.57
2023-01-28T16:29:29.240Z,9.10
2023-01-28T16:31:59.957Z,9.95
2023-01-28T16:34:29.791Z,8.25
2023-01-28T16:37:00.361Z,8.80
2023-01-28T16:39:27.919Z,11.15
2023-01-28T16:41:56.969Z,12.57
2023-01-28T16:44:23.640Z,14.15
2023-01-28T16:46:50.383Z,14.23
2023-01-28T16:49:17.739Z,15.68
2023-01-28T16:51:44.400Z,12.32
2023-01-28T16:54:16.498Z,16.60
2023-01-28T16:56:46.523Z,11.15
2023-01-28T16:59:15.751Z,9.27
2023-01-28T17:01:45.768Z,7.97
2023-01-28T17:04:13.608Z,7.95
2023-01-28T17:06:44.429Z,8.18
2023-01-28T17:09:13.627Z,7.78
2023-01-28T17:11:40.766Z,7.10
2023-01-28T17:14:08.371Z,7.25
2023-01-28T17:16:35.608Z,7.60
2023-01-28T17:19:02.469Z,7.40
2023-01-28T17:21:29.064Z,7.78
2023-01-28T17:23:58.352Z,9.30
2023-01-28T17:26:25.934Z,8.55
2023-01-28T17:28:53.672Z,7.53
2023-01-28T17:31:21.550Z,6.85
2023-01-28T17:33:53.222Z,6.85
2023-01-28T17:36:19.942Z,7.65
2023-01-28T17:38:46.875Z,7.28
2023-01-28T17:41:14.319Z,8.40
2023-01-28T17:43:41.209Z,7.55
2023-01-28T17:46:13.335Z,8.20
2023-01-28T17:48:40.511Z,7.97
2023-01-28T17:51:07.639Z,7.80
2023-01-28T17:53:34.521Z,9.65
2023-01-28T17:56:01.254Z,16.73
2023-01-28T17:58:28.262Z,13.07
2023-01-28T18:00:54.939Z,10.02
2023-01-28T18:03:21.598Z,8.95
2023-01-28T18:05:58.648Z,7.88
2023-01-28T18:08:25.498Z,8.77
2023-01-28T18:10:53.450Z,8.32
2023-01-28T18:13:20.071Z,9.02
2023-01-28T18:15:46.820Z,8.63
2023-01-28T18:18:13.469Z,8.57
2023-01-28T18:20:40.070Z,8.30
2023-01-28T18:23:06.754Z,10.10
2023-01-28T18:25:33.402Z,8.32
2023-01-28T18:28:00.218Z,8.35
2023-01-28T18:30:26.956Z,7.35
2023-01-28T18:32:53.579Z,8.27
2023-01-28T18:35:20.250Z,7.07
2023-01-28T18:37:46.972Z,7.43
2023-01-28T18:40:15.679Z,7.63
2023-01-28T18:42:42.443Z,7.00
2023-01-28T18:45:09.476Z,9.07
2023-01-28T18:47:36.283Z,9.23
2023-01-28T18:50:03.226Z,10.00
2023-01-28T18:52:29.824Z,9.70
2023-01-28T18:54:57.623Z,9.00
2023-01-28T18:57:24.461Z,9.55
2023-01-28T18:59:51.045Z,9.88
2023-01-28T19:02:17.794Z,8.98
2023-01-28T19:04:44.392Z,8.98
2023-01-28T19:07:11.967Z,8.38
2023-01-28T19:09:38.770Z,8.40
2023-01-28T19:12:05.956Z,8.95
2023-01-28T19:14:32.732Z,8.82
2023-01-28T19:16:59.544Z,8.75
2023-01-28T19:19:26.430Z,8.63
2023-01-28T19:21:53.594Z,9.88
2023-01-28T19:24:20.608Z,10.30
2023-01-28T19:26:47.308Z,10.18
2023-01-28T19:29:16.029Z,10.43
2023-01-28T19:31:44.264Z,10.07
2023-01-28T19:34:13.126Z,8.93
2023-01-28T19:36:40.031Z,9.25
2023-01-28T19:39:08.076Z,9.63
2023-01-28T19:41:36.052Z,10.10
2023-01-28T19:44:02.858Z,9.52
2023-01-28T19:46:29.720Z,10.55
2023-01-28T19:48:56.426Z,10.32
2023-01-28T19:51:24.048Z,9.93
2023-01-28T19:53:55.328Z,10.00
2023-01-28T19:56:24.364Z,9.90
2023-01-28T19:58:52.651Z,9.35
2023-01-28T20:01:24.796Z,10.30
2023-01-28T20:03:58.177Z,10.80
2023-01-28T20:06:27.595Z,10.07
2023-01-28T20:08:56.545Z,11.00
2023-01-28T20:11:23.692Z,10.25
2023-01-28T20:13:51.753Z,11.00
2023-01-28T20:16:21.681Z,12.77
2023-01-28T20:18:50.398Z,11.18
2023-01-28T20:21:18.926Z,12.13
2023-01-28T20:23:47.217Z,13.55
2023-01-28T20:26:13.909Z,11.50
2023-01-28T20:28:40.650Z,11.57
2023-01-28T20:31:10.275Z,10.60
2023-01-28T20:33:39.121Z,9.70
2023-01-28T20:36:11.555Z,11.57
2023-01-28T20:38:40.219Z,10.63
2023-01-28T20:41:11.380Z,10.20
2023-01-28T20:43:40.178Z,10.25
2023-01-28T20:46:09.032Z,10.27
2023-01-28T20:48:37.337Z,10.52
2023-01-28T20:51:11.292Z,9.55
2023-01-28T20:53:38.414Z,10.48
2023-01-28T20:56:06.356Z,9.90
2023-01-28T20:58:33.355Z,10.63
2023-01-28T21:01:00.402Z,10.52
2023-01-28T21:03:27.099Z,10.00
2023-01-28T21:05:53.739Z,10.77
2023-01-28T21:08:20.689Z,10.38
2023-01-28T21:10:47.684Z,11.05
2023-01-28T21:13:15.982Z,10.32
2023-01-28T21:15:54.582Z,10.85
2023-01-28T21:18:21.684Z,10.45
2023-01-28T21:20:49.067Z,11.02
2023-01-28T21:23:16.279Z,10.00
2023-01-28T21:25:51.031Z,12.90
2023-01-28T21:28:18.984Z,11.95
2023-01-28T21:30:46.695Z,12.02
2023-01-28T21:33:13.461Z,10.80
2023-01-28T21:35:42.283Z,10.75
2023-01-28T21:38:09.080Z,11.55
2023-01-28T21:40:37.428Z,11.77
2023-01-28T21:43:04.610Z,10.85
2023-01-28T21:45:31.446Z,11.13
2023-01-28T21:47:58.104Z,11.65
2023-01-28T21:50:25.026Z,13.18
2023-01-28T21:52:51.602Z,10.18
2023-01-28T21:55:18.855Z,11.52
2023-01-28T21:57:46.442Z,11.35
2023-01-28T22:00:13.357Z,11.13
2023-01-28T22:02:40.397Z,11.70
2023-01-28T22:05:07.302Z,11.23
2023-01-28T22:07:33.874Z,11.82
2023-01-28T22:10:00.619Z,11.68
2023-01-28T22:12:28.237Z,10.80
2023-01-28T22:14:56.011Z,11.57
2023-01-28T22:17:22.605Z,10.50
2023-01-28T22:19:49.199Z,11.45
2023-01-28T22:22:16.916Z,11.60
2023-01-28T22:24:43.783Z,12.18
2023-01-28T22:27:10.618Z,12.20
2023-01-28T22:29:37.409Z,11.40
2023-01-28T22:32:05.034Z,11.32
2023-01-28T22:34:32.437Z,12.40
2023-01-28T22:36:59.340Z,11.77
2023-01-28T22:39:26.040Z,11.15
2023-01-28T22:41:52.823Z,12.93
2023-01-28T22:44:20.197Z,13.40
2023-01-28T22:46:48.207Z,12.20
2023-01-28T22:49:15.293Z,12.30
2023-01-28T22:51:42.626Z,13.50
2023-01-28T22:54:11.090Z,13.82
2023-01-28T22:56:38.332Z,12.35
2023-01-28T22:59:05.219Z,13.30
2023-01-28T23:01:31.885Z,12.95
2023-01-28T23:03:58.773Z,11.02
2023-01-28T23:06:27.648Z,11.10
2023-01-28T23:08:56.334Z,11.60
2023-01-28T23:11:27.719Z,11.13
2023-01-28T23:14:19.192Z,12.98
2023-01-28T23:17:05.047Z,10.80
2023-01-28T23:19:50.679Z,11.00
2023-01-28T23:22:43.756Z,10.63
2023-01-28T23:25:10.947Z,11.00
2023-01-28T23:27:38.127Z,11.82
2023-01-28T23:30:10.102Z,11.23
2023-01-28T23:32:40.153Z,11.13
2023-01-28T23:35:10.898Z,11.13
2023-01-28T23:37:37.915Z,11.68
2023-01-28T23:40:05.726Z,11.05
2023-01-28T23:42:32.404Z,11.82
2023-01-28T23:44:59.059Z,11.27
2023-01-28T23:47:25.763Z,11.83
2023-01-28T23:49:52.406Z,10.65
2023-01-28T23:52:18.991Z,11.48
2023-01-28T23:54:45.733Z,9.80
2023-01-28T23:57:12.359Z,11.25
2023-01-28T23:59:39.385Z,12.05
